Time;durP1;ratioP1;P1;durP2;ratioP2;P2;SDS_P1;SDS_P2;PMS_P1;PMS_P2;Temp;Humidity;BMP_temperature;BMP_pressure;BME280_temperature;BME280_humidity;BME280_pressure;Samples;Min_cycle;Max_cycle;Signal;HPM_P1;HPM_P2
2021/04/20 00:00:58;;;;;;;3.28;2.70;;;11.20;99.00;;;;;;5065485;28;20511;-70
2021/04/20 00:03:25;;;;;;;4.15;3.10;;;11.00;99.40;;;;;;5065428;28;20089;-71
2021/04/20 00:05:51;;;;;;;4.10;3.20;;;11.00;99.60;;;;;;5065998;28;20068;-70
2021/04/20 00:08:17;;;;;;;3.85;3.03;;;11.20;99.50;;;;;;5065498;28;20075;-70
2021/04/20 00:10:43;;;;;;;3.80;3.25;;;11.00;99.70;;;;;;5065254;28;20329;-70
2021/04/20 00:13:09;;;;;;;4.22;2.90;;;11.00;99.80;;;;;;5065133;28;20021;-70
2021/04/20 00:15:36;;;;;;;6.10;3.10;;;11.00;99.90;;;;;;5064317;28;20041;-70
2021/04/20 00:18:06;;;;;;;3.92;3.00;;;10.90;99.90;;;;;;5065475;28;20209;-71
2021/04/20 00:20:32;;;;;;;5.28;3.70;;;10.90;99.90;;;;;;5065189;28;20046;-70
2021/04/20 00:22:58;;;;;;;4.90;3.25;;;10.80;99.90;;;;;;5065061;28;20067;-71
2021/04/20 00:25:24;;;;;;;5.70;3.55;;;11.00;99.90;;;;;;5065922;28;20075;-71
2021/04/20 00:27:50;;;;;;;5.43;3.47;;;10.90;99.90;;;;;;5065272;28;20048;-71
2021/04/20 00:30:16;;;;;;;4.43;3.22;;;10.90;99.90;;;;;;5065200;28;20032;-72
2021/04/20 00:32:43;;;;;;;4.75;3.55;;;10.80;99.90;;;;;;5064979;28;20430;-72
2021/04/20 00:35:09;;;;;;;3.47;2.80;;;10.70;99.90;;;;;;5065194;28;20020;-71
2021/04/20 00:37:36;;;;;;;4.88;3.03;;;10.40;99.90;;;;;;5054158;28;20525;-72
2021/04/20 00:40:03;;;;;;;4.53;3.25;;;10.40;99.90;;;;;;5046136;28;20036;-71
2021/04/20 00:42:30;;;;;;;5.35;3.33;;;10.30;99.90;;;;;;5044693;28;20044;-71
2021/04/20 00:44:55;;;;;;;4.93;3.40;;;10.40;99.90;;;;;;5045635;28;20029;-70
2021/04/20 00:47:21;;;;;;;4.82;3.53;;;10.30;99.90;;;;;;5044399;28;20549;-70
2021/04/20 00:49:48;;;;;;;4.85;3.67;;;10.40;99.90;;;;;;5044531;28;20033;-70
2021/04/20 00:52:14;;;;;;;4.38;3.35;;;10.60;99.90;;;;;;5044919;28;20052;-70
2021/04/20 00:54:40;;;;;;;3.33;2.80;;;10.50;99.90;;;;;;5061777;28;20581;-70
2021/04/20 00:57:07;;;;;;;3.90;2.95;;;10.60;99.90;;;;;;5065478;28;20032;-71
2021/04/20 00:59:34;;;;;;;3.55;3.15;;;10.50;99.90;;;;;;5064890;28;20397;-71
2021/04/20 01:02:00;;;;;;;5.70;3.80;;;10.40;99.90;;;;;;5065088;28;20445;-71
2021/04/20 01:04:26;;;;;;;4.88;3.78;;;10.30;99.90;;;;;;5065059;28;20029;-70
2021/04/20 01:06:53;;;;;;;4.20;3.63;;;10.40;99.90;;;;;;5065454;28;20081;-70
2021/04/20 01:09:19;;;;;;;4.85;3.80;;;10.30;99.90;;;;;;5064194;28;20044;-71
2021/04/20 01:11:48;;;;;;;6.07;4.13;;;10.30;99.90;;;;;;5064469;28;20047;-70
2021/04/20 01:14:15;;;;;;;6.53;3.90;;;10.20;99.90;;;;;;5063557;28;20039;-70
2021/04/20 01:16:41;;;;;;;3.95;3.15;;;10.00;99.90;;;;;;5064572;28;20090;-70
2021/04/20 01:19:08;;;;;;;6.03;4.00;;;10.00;99.90;;;;;;5064753;28;20029;-70
2021/04/20 01:21:37;;;;;;;5.28;3.63;;;9.90;99.90;;;;;;5064509;28;20040;-70
2021/04/20 01:24:02;;;;;;;4.22;3.50;;;9.90;99.90;;;;;;5062235;28;20644;-71
2021/04/20 01:26:34;;;;;;;4.30;3.63;;;9.80;99.90;;;;;;5065715;28;20095;-71
2021/04/20 01:29:00;;;;;;;4.88;3.72;;;9.70;99.90;;;;;;5066413;28;20032;-71
2021/04/20 01:31:27;;;;;;;5.03;3.28;;;9.70;99.90;;;;;;5066414;28;20054;-71
2021/04/20 01:33:53;;;;;;;4.38;3.28;;;9.80;99.90;;;;;;5062563;28;20037;-71
2021/04/20 01:36:21;;;;;;;5.25;3.95;;;9.90;99.90;;;;;;5064546;28;20031;-71
2021/04/20 01:38:49;;;;;;;4.78;3.28;;;9.90;99.90;;;;;;5064508;28;20017;-71
2021/04/20 01:41:17;;;;;;;3.97;3.13;;;10.00;99.90;;;;;;5062707;28;20525;-70
2021/04/20 01:43:46;;;;;;;3.63;3.13;;;10.00;99.90;;;;;;5064349;28;20123;-70
2021/04/20 01:46:15;;;;;;;4.63;3.50;;;10.20;99.90;;;;;;5064679;28;20522;-69
2021/04/20 01:48:42;;;;;;;3.72;3.08;;;10.20;99.90;;;;;;5063853;28;20041;-69
2021/04/20 01:51:08;;;;;;;4.03;3.33;;;10.20;99.90;;;;;;5064435;28;20460;-69
2021/04/20 01:53:35;;;;;;;3.88;3.42;;;10.00;99.90;;;;;;5064162;28;20566;-69
2021/04/20 01:56:07;;;;;;;4.00;3.60;;;9.80;99.90;;;;;;5064212;28;20103;-71
2021/04/20 01:58:35;;;;;;;3.85;3.15;;;9.70;99.90;;;;;;5064099;28;20039;-71
2021/04/20 02:01:09;;;;;;;3.78;3.13;;;9.70;99.90;;;;;;5067739;28;20037;-70
2021/04/20 02:03:37;;;;;;;4.93;3.50;;;9.70;99.90;;;;;;5065683;28;20096;-70
2021/04/20 02:06:07;;;;;;;5.57;3.83;;;9.80;99.90;;;;;;5048005;28;20037;-70
2021/04/20 02:08:33;;;;;;;7.05;4.45;;;9.80;99.90;;;;;;5047232;28;20139;-70
2021/04/20 02:11:04;;;;;;;6.30;3.92;;;9.80;99.90;;;;;;5048162;28;20036;-70
2021/04/20 02:13:31;;;;;;;6.28;4.53;;;9.90;99.90;;;;;;5047168;28;20386;-69
2021/04/20 02:16:00;;;;;;;5.53;3.70;;;9.90;99.90;;;;;;5047872;28;20021;-70
2021/04/20 02:18:28;;;;;;;7.07;4.63;;;9.80;99.90;;;;;;5047697;28;20407;-70
2021/04/20 02:20:56;;;;;;;5.95;4.50;;;9.80;99.90;;;;;;5048385;28;20028;-70
2021/04/20 02:23:21;;;;;;;5.55;4.20;;;9.80;99.90;;;;;;5062643;28;20033;-70
2021/04/20 02:25:48;;;;;;;5.47;3.95;;;9.80;99.90;;;;;;5067616;28;20248;-70
2021/04/20 02:28:14;;;;;;;5.60;4.28;;;9.80;99.90;;;;;;5067580;28;20025;-71
2021/04/20 02:30:42;;;;;;;6.32;4.80;;;9.90;99.90;;;;;;5067066;28;20028;-72
2021/04/20 02:33:10;;;;;;;6.07;4.50;;;9.90;99.90;;;;;;5066377;28;20017;-72
2021/04/20 02:35:36;;;;;;;5.75;4.63;;;9.90;99.90;;;;;;5067176;28;20028;-71
2021/04/20 02:38:02;;;;;;;6.15;5.13;;;10.00;99.90;;;;;;5067291;28;20052;-71
2021/04/20 02:40:33;;;;;;;7.82;5.80;;;10.10;99.90;;;;;;5066450;28;20105;-72
2021/04/20 02:42:59;;;;;;;6.40;4.80;;;10.20;99.90;;;;;;5067310;28;20031;-71
2021/04/20 02:45:27;;;;;;;8.10;5.20;;;10.00;99.90;;;;;;5067283;28;20021;-69
2021/04/20 02:47:54;;;;;;;8.40;6.03;;;9.90;99.90;;;;;;5067571;28;20020;-69
2021/04/20 02:50:24;;;;;;;7.95;5.60;;;9.80;99.90;;;;;;5067160;28;20024;-69
2021/04/20 02:52:52;;;;;;;6.95;5.13;;;9.70;99.90;;;;;;5066909;28;20726;-69
2021/04/20 02:55:18;;;;;;;8.10;5.43;;;9.60;99.90;;;;;;5066763;28;20031;-70
2021/04/20 02:57:48;;;;;;;6.47;5.13;;;9.50;99.90;;;;;;5067116;28;20029;-69
2021/04/20 03:00:18;;;;;;;6.38;4.57;;;9.40;99.90;;;;;;5066443;28;20495;-71
2021/04/20 03:02:48;;;;;;;7.20;5.45;;;9.80;99.90;;;;;;5065224;28;20399;-70
2021/04/20 03:05:17;;;;;;;8.73;5.10;;;9.80;99.90;;;;;;5066492;28;20025;-70
2021/04/20 03:07:44;;;;;;;8.27;5.53;;;9.80;99.90;;;;;;5066767;28;20050;-70
2021/04/20 03:10:11;;;;;;;6.80;5.10;;;9.70;99.90;;;;;;5064029;28;20487;-70
2021/04/20 03:12:40;;;;;;;6.57;5.00;;;9.40;99.90;;;;;;5065614;28;20024;-70
2021/04/20 03:15:09;;;;;;;6.53;4.90;;;9.20;99.90;;;;;;5066282;28;20162;-69
2021/04/20 03:17:35;;;;;;;5.80;4.30;;;8.90;99.90;;;;;;5066014;28;20466;-69
2021/04/20 03:20:01;;;;;;;6.93;4.25;;;8.70;99.90;;;;;;5066510;28;20028;-70
2021/04/20 03:22:28;;;;;;;5.97;4.35;;;8.80;99.90;;;;;;5066609;28;20407;-70
2021/04/20 03:25:08;;;;;;;6.22;4.32;;;8.90;99.90;;;;;;5066856;28;20540;-70
2021/04/20 03:27:36;;;;;;;4.68;4.10;;;8.90;99.90;;;;;;5065993;28;20099;-70
2021/04/20 03:30:06;;;;;;;5.88;4.40;;;9.00;99.90;;;;;;5066265;28;20037;-70
2021/04/20 03:32:32;;;;;;;6.68;5.15;;;9.10;99.90;;;;;;5065633;28;20052;-71
2021/04/20 03:35:05;;;;;;;6.45;4.80;;;9.00;99.90;;;;;;5065865;28;20029;-71
2021/04/20 03:37:42;;;;;;;5.90;4.80;;;8.80;99.90;;;;;;5064563;28;20098;-71
2021/04/20 03:40:12;;;;;;;6.95;5.45;;;8.60;99.90;;;;;;5066226;28;20035;-70
2021/04/20 03:43:01;;;;;;;6.07;4.80;;;8.60;99.90;;;;;;5065495;28;20025;-70
2021/04/20 03:45:37;;;;;;;5.07;4.07;;;8.60;99.90;;;;;;5066152;28;20024;-69
2021/04/20 03:48:14;;;;;;;6.25;4.50;;;8.70;99.90;;;;;;5065746;28;20021;-69
2021/04/20 03:50:45;;;;;;;5.72;4.40;;;8.60;99.90;;;;;;5065672;28;20031;-69
2021/04/20 03:53:15;;;;;;;6.28;4.30;;;8.50;99.90;;;;;;5065632;28;20059;-69
2021/04/20 03:55:46;;;;;;;5.68;4.10;;;8.60;99.90;;;;;;5065548;28;20545;-70
2021/04/20 03:58:14;;;;;;;6.80;4.53;;;8.60;99.90;;;;;;5065461;28;20017;-69
2021/04/20 04:00:41;;;;;;;6.05;4.32;;;8.50;99.90;;;;;;5065671;28;20565;-69
2021/04/20 04:03:10;;;;;;;5.45;4.25;;;8.40;99.90;;;;;;5065466;28;20024;-69
2021/04/20 04:05:40;;;;;;;7.93;4.40;;;8.40;99.90;;;;;;5065181;28;20151;-69
2021/04/20 04:08:07;;;;;;;8.20;4.93;;;8.40;99.90;;;;;;5064492;28;20419;-69
2021/04/20 04:10:37;;;;;;;6.93;5.43;;;8.60;99.90;;;;;;5064546;28;20032;-70
2021/04/20 04:13:05;;;;;;;6.75;4.65;;;8.60;99.90;;;;;;5065569;28;20020;-70
2021/04/20 04:15:33;;;;;;;7.53;5.57;;;8.50;99.90;;;;;;5065185;28;20119;-69
2021/04/20 04:18:04;;;;;;;6.75;5.35;;;8.60;99.90;;;;;;5065487;28;20017;-69
2021/04/20 04:20:29;;;;;;;7.60;5.22;;;8.50;99.90;;;;;;5052343;28;20049;-70
2021/04/20 04:23:18;;;;;;;5.22;4.45;;;8.50;99.90;;;;;;5045785;28;20075;-69
2021/04/20 04:26:09;;;;;;;6.85;5.10;;;8.30;99.90;;;;;;5045032;28;20036;-70
2021/04/20 04:28:37;;;;;;;6.70;5.22;;;8.30;99.90;;;;;;5045052;28;20079;-70
2021/04/20 04:31:05;;;;;;;7.75;5.32;;;8.30;99.90;;;;;;5045180;28;20033;-70
2021/04/20 04:33:39;;;;;;;7.78;5.82;;;8.60;99.90;;;;;;5044631;28;20380;-69
2021/04/20 04:36:06;;;;;;;8.82;5.50;;;8.70;99.90;;;;;;5045339;28;20032;-69
2021/04/20 04:38:32;;;;;;;6.90;5.45;;;8.80;99.90;;;;;;5044971;28;20032;-70
2021/04/20 04:41:01;;;;;;;7.32;5.43;;;8.90;99.90;;;;;;5044923;28;20026;-69
2021/04/20 04:43:27;;;;;;;7.75;6.00;;;8.90;99.90;;;;;;5044994;28;20028;-69
2021/04/20 04:45:59;;;;;;;8.55;6.25;;;8.90;99.90;;;;;;5045656;28;20487;-69
2021/04/20 04:48:27;;;;;;;10.65;7.15;;;8.90;99.90;;;;;;5045082;28;20025;-68
2021/04/20 04:50:53;;;;;;;7.82;5.95;;;8.80;99.90;;;;;;5045723;28;20029;-69
2021/04/20 04:53:20;;;;;;;9.55;6.50;;;8.70;99.90;;;;;;5044491;28;20484;-69
2021/04/20 04:55:48;;;;;;;10.25;7.07;;;8.40;99.90;;;;;;5044973;28;20029;-69
2021/04/20 04:58:16;;;;;;;7.15;5.53;;;8.30;99.90;;;;;;5044722;28;20013;-70
2021/04/20 05:00:43;;;;;;;8.20;5.65;;;8.10;99.90;;;;;;5044258;28;20031;-70
2021/04/20 05:03:09;;;;;;;10.18;5.80;;;8.10;99.90;;;;;;5044900;28;20321;-69
2021/04/20 05:05:37;;;;;;;8.07;5.72;;;8.00;99.90;;;;;;5044695;28;20043;-69
2021/04/20 05:08:03;;;;;;;6.38;5.20;;;8.20;99.90;;;;;;5059874;28;20285;-69
2021/04/20 05:10:29;;;;;;;7.82;5.55;;;8.20;99.90;;;;;;5064128;28;20442;-70
2021/04/20 05:12:56;;;;;;;7.50;5.53;;;8.30;99.90;;;;;;5062559;28;20029;-69
2021/04/20 05:15:23;;;;;;;8.50;5.10;;;8.10;99.90;;;;;;5044357;28;20107;-69
2021/04/20 05:17:50;;;;;;;6.50;4.80;;;8.20;99.90;;;;;;5044929;28;20565;-69
2021/04/20 05:20:19;;;;;;;6.85;5.35;;;8.20;99.90;;;;;;5044774;28;20567;-69
2021/04/20 05:22:46;;;;;;;10.98;5.97;;;8.40;99.90;;;;;;5050223;28;20021;-69
2021/04/20 05:25:17;;;;;;;9.77;6.20;;;8.50;99.90;;;;;;5064682;28;20045;-69
2021/04/20 05:27:44;;;;;;;10.25;6.72;;;8.60;99.90;;;;;;5063638;28;20032;-70
2021/04/20 05:30:10;;;;;;;8.30;6.10;;;8.70;99.90;;;;;;5063561;28;20090;-70
2021/04/20 05:32:38;;;;;;;8.55;5.97;;;8.70;99.90;;;;;;5063283;28;20035;-72
2021/04/20 05:35:05;;;;;;;9.60;6.18;;;8.70;99.90;;;;;;5066682;28;20095;-70
2021/04/20 05:37:36;;;;;;;9.07;5.88;;;8.80;99.90;;;;;;5067858;28;20474;-69
2021/04/20 05:40:13;;;;;;;8.07;6.07;;;8.70;99.90;;;;;;5068992;28;20020;-69
2021/04/20 05:42:40;;;;;;;9.15;5.90;;;8.80;99.90;;;;;;5067755;28;20613;-69
2021/04/20 05:45:08;;;;;;;8.32;5.97;;;8.90;99.90;;;;;;5068388;28;20037;-68
2021/04/20 05:47:37;;;;;;;8.63;6.28;;;9.00;99.90;;;;;;5065654;28;20035;-69
2021/04/20 05:50:05;;;;;;;8.55;6.28;;;9.10;99.90;;;;;;5069565;28;20115;-69
2021/04/20 05:52:34;;;;;;;9.23;6.63;;;9.20;99.90;;;;;;5069316;28;20055;-69
2021/04/20 05:55:02;;;;;;;9.77;6.63;;;9.20;99.90;;;;;;5069443;28;20024;-69
2021/04/20 05:57:27;;;;;;;9.45;6.65;;;9.20;99.90;;;;;;5069111;28;20028;-70
2021/04/20 05:59:55;;;;;;;9.63;6.43;;;9.20;99.90;;;;;;5070005;28;20025;-69
2021/04/20 06:02:23;;;;;;;9.20;6.28;;;9.20;99.90;;;;;;5068956;28;20024;-69
2021/04/20 06:04:58;;;;;;;7.82;5.60;;;9.40;99.90;;;;;;5069477;28;20047;-70
2021/04/20 06:07:25;;;;;;;8.18;6.05;;;9.50;99.90;;;;;;5069442;28;20452;-69
2021/04/20 06:09:51;;;;;;;7.22;5.57;;;9.50;99.90;;;;;;5068981;28;20132;-69
2021/04/20 06:12:16;;;;;;;7.60;5.50;;;9.40;99.90;;;;;;5068898;28;20111;-69
2021/04/20 06:14:43;;;;;;;8.20;6.03;;;9.20;99.90;;;;;;5060547;28;20037;-69
2021/04/20 06:17:12;;;;;;;9.75;6.72;;;9.30;99.90;;;;;;5052182;28;20079;-69
2021/04/20 06:19:39;;;;;;;7.13;5.22;;;9.30;99.90;;;;;;5065259;28;20053;-69
2021/04/20 06:22:09;;;;;;;7.57;5.68;;;9.40;99.90;;;;;;5066124;28;20033;-69
2021/04/20 06:24:35;;;;;;;6.25;4.78;;;9.30;99.90;;;;;;5048856;28;20380;-69
2021/04/20 06:27:02;;;;;;;8.90;5.55;;;9.50;99.90;;;;;;5064237;28;20028;-68
2021/04/20 06:29:27;;;;;;;6.03;4.65;;;9.50;99.90;;;;;;5067703;28;20025;-70
2021/04/20 06:31:54;;;;;;;6.38;4.82;;;9.60;99.90;;;;;;5069416;28;20431;-69
2021/04/20 06:34:22;;;;;;;6.38;4.97;;;9.60;99.90;;;;;;5063301;28;20033;-69
2021/04/20 06:36:48;;;;;;;8.07;5.78;;;9.80;99.90;;;;;;5060379;28;20032;-70
2021/04/20 06:39:14;;;;;;;6.88;5.32;;;9.90;99.90;;;;;;5067552;28;20028;-70
2021/04/20 06:41:42;;;;;;;8.80;5.70;;;9.90;99.90;;;;;;5053051;28;20111;-70
2021/04/20 06:44:34;;;;;;;6.55;5.22;;;9.90;99.90;;;;;;5068598;28;20024;-68
2021/04/20 06:47:11;;;;;;;8.15;5.47;;;9.90;99.90;;;;;;5060452;28;20033;-68
2021/04/20 06:49:43;;;;;;;7.82;5.40;;;10.00;99.90;;;;;;5064720;28;20043;-71
2021/04/20 06:52:24;;;;;;;8.10;5.63;;;9.90;99.90;;;;;;5067633;28;20024;-68
2021/04/20 06:55:05;;;;;;;8.07;5.28;;;10.10;99.90;;;;;;5067486;28;20099;-70
2021/04/20 06:58:07;;;;;;;9.35;5.85;;;10.10;99.90;;;;;;5064966;28;20414;-72
2021/04/20 07:00:42;;;;;;;6.88;5.00;;;10.10;99.90;;;;;;5065499;28;20032;-69
2021/04/20 07:03:29;;;;;;;8.00;4.93;;;10.20;99.90;;;;;;5067686;28;20503;-68
2021/04/20 07:06:12;;;;;;;6.78;5.20;;;10.30;99.90;;;;;;5065708;28;20032;-69
2021/04/20 07:08:44;;;;;;;6.78;5.53;;;10.30;99.90;;;;;;5056645;28;20021;-72
2021/04/20 07:11:14;;;;;;;7.50;5.63;;;10.30;99.90;;;;;;5067463;28;20609;-68
2021/04/20 07:13:51;;;;;;;7.03;5.43;;;10.50;99.90;;;;;;5066114;28;20017;-68
2021/04/20 07:16:34;;;;;;;7.82;5.75;;;10.50;99.90;;;;;;5050902;28;20382;-67
2021/04/20 07:19:28;;;;;;;6.75;5.18;;;10.50;99.90;;;;;;5060187;28;20032;-66
2021/04/20 07:22:21;;;;;;;8.87;6.00;;;10.40;99.90;;;;;;5060977;28;20048;-66
2021/04/20 07:25:05;;;;;;;7.63;5.57;;;10.30;99.90;;;;;;5068112;28;20354;-69
2021/04/20 07:27:39;;;;;;;8.43;5.90;;;10.40;99.90;;;;;;5067879;28;20086;-74
2021/04/20 07:30:24;;;;;;;13.63;8.88;;;10.50;99.90;;;;;;5066448;28;20399;-72
2021/04/20 07:33:17;;;;;;;11.35;7.88;;;10.40;99.90;;;;;;5066126;28;20388;-73
2021/04/20 07:35:50;;;;;;;10.30;6.25;;;10.30;99.90;;;;;;5066956;28;20398;-72
2021/04/20 07:38:19;;;;;;;8.50;5.87;;;10.40;99.90;;;;;;5066081;28;20028;-72
2021/04/20 07:40:56;;;;;;;6.57;5.00;;;10.50;99.90;;;;;;5066473;28;20028;-74
2021/04/20 07:43:28;;;;;;;8.55;6.28;;;10.50;99.90;;;;;;5066383;28;20525;-72
2021/04/20 07:45:59;;;;;;;10.43;6.93;;;10.50;99.90;;;;;;5066511;28;20342;-72
2021/04/20 07:48:37;;;;;;;7.82;5.90;;;10.40;99.90;;;;;;5064883;28;20021;-71
2021/04/20 07:51:28;;;;;;;9.07;6.32;;;10.50;99.90;;;;;;5065901;28;20039;-71
2021/04/20 07:54:08;;;;;;;7.53;5.40;;;10.60;99.90;;;;;;5060012;28;20445;-71
2021/04/20 07:56:44;;;;;;;7.65;5.70;;;10.70;99.90;;;;;;5065415;28;20063;-70
2021/04/20 07:59:15;;;;;;;6.47;4.90;;;10.70;99.90;;;;;;5065245;28;20100;-71
2021/04/20 08:01:54;;;;;;;7.93;4.93;;;10.80;99.90;;;;;;5065621;28;20053;-71
2021/04/20 08:04:50;;;;;;;6.47;5.07;;;11.00;99.90;;;;;;5065539;28;20470;-71
2021/04/20 08:07:39;;;;;;;5.65;4.32;;;11.00;99.90;;;;;;5065651;28;20040;-71
2021/04/20 08:10:08;;;;;;;7.03;5.15;;;11.10;99.90;;;;;;5065011;28;20040;-71
2021/04/20 08:12:46;;;;;;;8.35;5.15;;;11.00;99.90;;;;;;5064728;28;20107;-71
2021/04/20 08:15:18;;;;;;;6.13;4.32;;;11.00;99.90;;;;;;5065295;28;20387;-71
2021/04/20 08:17:59;;;;;;;5.35;4.07;;;11.20;99.90;;;;;;5065101;28;20100;-72
2021/04/20 08:20:26;;;;;;;5.25;4.30;;;11.10;99.90;;;;;;5065708;28;20082;-70
2021/04/20 08:22:55;;;;;;;8.93;6.50;;;11.20;99.90;;;;;;5065161;28;20068;-71
2021/04/20 08:25:44;;;;;;;9.15;5.72;;;11.10;99.90;;;;;;5065073;28;20035;-71
2021/04/20 08:28:24;;;;;;;5.55;4.10;;;11.10;99.90;;;;;;5064896;28;20452;-72
2021/04/20 08:31:03;;;;;;;8.38;5.38;;;11.20;99.90;;;;;;5065180;28;20029;-71
2021/04/20 08:33:32;;;;;;;6.22;4.50;;;11.20;99.90;;;;;;5064561;28;20025;-71
2021/04/20 08:36:02;;;;;;;6.75;4.50;;;11.50;99.90;;;;;;5065551;28;20020;-71
2021/04/20 08:38:51;;;;;;;4.40;3.20;;;11.40;99.90;;;;;;5064963;28;20021;-71
2021/04/20 08:41:24;;;;;;;3.55;2.88;;;11.70;99.90;;;;;;5065468;28;20048;-71
2021/04/20 08:44:08;;;;;;;4.22;2.75;;;11.80;99.90;;;;;;5064546;28;20116;-71
2021/04/20 08:46:40;;;;;;;4.82;3.20;;;11.80;99.90;;;;;;5064827;28;20107;-70
2021/04/20 08:49:44;;;;;;;4.07;3.00;;;11.80;99.90;;;;;;5065061;28;20041;-71
2021/04/20 08:52:47;;;;;;;3.47;2.67;;;12.00;99.90;;;;;;5063399;28;20025;-71
2021/04/20 08:55:28;;;;;;;4.95;3.67;;;12.00;99.90;;;;;;5064746;28;20033;-70
2021/04/20 08:58:16;;;;;;;4.43;3.50;;;11.90;99.90;;;;;;5065104;28;20214;-71
2021/04/20 09:00:51;;;;;;;5.15;4.13;;;11.80;99.90;;;;;;5064738;28;20075;-70
2021/04/20 09:03:48;;;;;;;4.72;3.17;;;11.90;99.90;;;;;;5064686;28;20028;-71
2021/04/20 09:06:34;;;;;;;5.53;3.95;;;12.20;99.90;;;;;;5064849;28;20028;-71
2021/04/20 09:09:05;;;;;;;5.65;3.95;;;12.00;99.90;;;;;;5064757;28;20090;-71
2021/04/20 09:11:42;;;;;;;5.13;3.05;;;11.90;99.90;;;;;;5068406;28;20036;-71
2021/04/20 09:14:10;;;;;;;3.90;2.90;;;12.20;99.90;;;;;;5067596;28;20020;-71
2021/04/20 09:16:59;;;;;;;2.30;2.10;;;12.50;99.90;;;;;;5068430;28;20487;-70
2021/04/20 09:19:44;;;;;;;3.30;2.63;;;12.50;99.90;;;;;;5068987;28;20032;-71
2021/04/20 09:22:30;;;;;;;3.13;2.10;;;12.50;99.90;;;;;;5068708;28;20044;-71
2021/04/20 09:25:04;;;;;;;4.63;3.50;;;12.60;99.90;;;;;;5069464;28;20058;-70
2021/04/20 09:27:45;;;;;;;3.42;2.40;;;12.50;99.90;;;;;;5068226;28;20548;-71
2021/04/20 09:30:16;;;;;;;3.05;2.40;;;12.80;99.90;;;;;;5068563;28;20036;-71
2021/04/20 09:32:51;;;;;;;3.85;2.60;;;13.00;99.90;;;;;;5068137;28;20024;-71
2021/04/20 09:35:17;;;;;;;3.25;2.58;;;12.90;99.90;;;;;;5068954;28;20131;-71
2021/04/20 09:37:45;;;;;;;4.95;2.60;;;12.90;99.90;;;;;;5068042;28;20020;-71
2021/04/20 09:40:17;;;;;;;3.58;2.17;;;12.90;99.90;;;;;;5068136;28;20028;-71
2021/04/20 09:42:47;;;;;;;3.15;2.70;;;13.00;99.90;;;;;;5067900;28;20029;-71
2021/04/20 09:45:38;;;;;;;3.03;2.50;;;12.90;99.90;;;;;;5068210;28;20056;-70
2021/04/20 09:48:31;;;;;;;2.65;1.98;;;13.20;99.90;;;;;;5068424;28;20506;-72
2021/04/20 09:51:07;;;;;;;2.72;2.33;;;13.30;99.90;;;;;;5068900;28;20025;-72
2021/04/20 09:53:56;;;;;;;6.15;4.05;;;13.10;99.90;;;;;;5067745;28;20024;-71
2021/04/20 09:56:29;;;;;;;6.13;3.53;;;12.90;99.90;;;;;;5067929;28;20402;-71
2021/04/20 09:58:55;;;;;;;3.33;2.90;;;13.00;99.90;;;;;;5068407;28;20024;-71
2021/04/20 10:01:58;;;;;;;4.10;2.83;;;13.10;99.90;;;;;;5067808;28;20135;-72
2021/04/20 10:04:41;;;;;;;8.60;6.30;;;13.40;99.90;;;;;;5067992;28;20029;-71
2021/04/20 10:07:56;;;;;;;6.00;4.30;;;13.20;99.90;;;;;;5067655;28;20035;-72
2021/04/20 10:10:55;;;;;;;4.55;3.65;;;13.40;99.90;;;;;;5066995;28;20036;-71
2021/04/20 10:13:31;;;;;;;4.35;3.20;;;13.40;99.90;;;;;;5067112;28;20119;-71
2021/04/20 10:16:13;;;;;;;3.25;2.40;;;13.40;99.90;;;;;;5068280;28;20021;-72
2021/04/20 10:18:45;;;;;;;3.80;3.03;;;13.50;99.90;;;;;;5067335;28;20070;-70
2021/04/20 10:21:28;;;;;;;4.10;3.30;;;13.60;99.90;;;;;;5067222;28;20063;-70
2021/04/20 10:24:07;;;;;;;4.65;2.97;;;13.40;99.90;;;;;;5067810;28;20048;-71
2021/04/20 10:26:54;;;;;;;4.50;2.92;;;13.80;99.90;;;;;;5067047;28;20350;-71
2021/04/20 10:29:41;;;;;;;3.67;2.90;;;14.00;99.90;;;;;;5067014;28;20056;-71
2021/04/20 10:32:18;;;;;;;5.55;3.00;;;14.20;99.90;;;;;;5067063;28;20468;-70
2021/04/20 10:34:48;;;;;;;4.70;3.20;;;14.20;99.90;;;;;;5067037;28;20110;-69
2021/04/20 10:37:14;;;;;;;3.53;2.85;;;14.20;99.40;;;;;;5067337;28;20028;-69
2021/04/20 10:39:46;;;;;;;3.65;2.80;;;14.40;99.90;;;;;;5066723;28;20025;-70
2021/04/20 10:42:13;;;;;;;6.03;3.55;;;14.70;99.90;;;;;;5066652;28;20128;-69
2021/04/20 10:44:41;;;;;;;5.38;3.75;;;14.50;99.20;;;;;;5066803;28;20207;-69
2021/04/20 10:47:08;;;;;;;3.67;3.05;;;14.60;99.20;;;;;;5067025;28;20468;-68
2021/04/20 10:49:35;;;;;;;4.32;3.40;;;14.60;99.00;;;;;;5066498;28;20102;-69
2021/04/20 10:52:10;;;;;;;4.00;2.97;;;14.70;98.30;;;;;;5059580;28;20029;-69
2021/04/20 10:54:39;;;;;;;5.03;2.70;;;14.70;99.00;;;;;;5067836;28;20028;-69
2021/04/20 10:57:07;;;;;;;2.85;2.40;;;15.00;97.40;;;;;;5048017;28;20059;-70
2021/04/20 10:59:35;;;;;;;3.10;2.72;;;14.90;97.70;;;;;;5046469;28;20072;-70
2021/04/20 11:02:10;;;;;;;4.35;3.40;;;15.00;98.00;;;;;;5046854;28;20032;-68
2021/04/20 11:04:38;;;;;;;5.10;2.97;;;15.10;98.30;;;;;;5047090;28;20059;-70
2021/04/20 11:07:27;;;;;;;3.55;2.70;;;15.20;97.70;;;;;;5046137;28;20025;-69
2021/04/20 11:10:03;;;;;;;3.35;2.50;;;15.20;97.90;;;;;;5046064;28;20040;-70
2021/04/20 11:12:30;;;;;;;2.45;1.90;;;15.30;97.80;;;;;;5045847;28;20025;-70
2021/04/20 11:14:56;;;;;;;2.78;2.25;;;15.50;97.40;;;;;;5046757;28;20036;-69
2021/04/20 11:17:28;;;;;;;2.00;1.75;;;15.50;96.80;;;;;;5046128;28;20104;-71
2021/04/20 11:20:11;;;;;;;2.38;2.17;;;15.90;97.50;;;;;;5046025;28;20033;-71
2021/04/20 11:22:46;;;;;;;4.22;3.10;;;15.70;96.10;;;;;;5046362;28;20061;-71
2021/04/20 11:25:33;;;;;;;3.90;2.88;;;15.60;96.30;;;;;;5046297;28;20056;-71
2021/04/20 11:28:02;;;;;;;5.45;3.55;;;15.60;95.50;;;;;;5045347;28;20021;-71
2021/04/20 11:30:34;;;;;;;4.90;3.42;;;15.50;95.10;;;;;;5046022;28;20460;-71
2021/04/20 11:33:13;;;;;;;2.78;2.28;;;15.70;95.80;;;;;;5045406;28;20017;-72
2021/04/20 11:35:45;;;;;;;3.15;2.28;;;16.20;96.30;;;;;;5047171;28;20021;-69
2021/04/20 11:38:15;;;;;;;3.20;2.33;;;16.30;95.10;;;;;;5057636;28;20039;-69
2021/04/20 11:40:48;;;;;;;4.07;3.10;;;16.30;95.00;;;;;;5050366;28;20047;-70
2021/04/20 11:43:15;;;;;;;3.27;2.80;;;16.50;95.20;;;;;;5060963;28;20514;-69
2021/04/20 11:45:43;;;;;;;2.95;2.58;;;16.70;94.50;;;;;;5065188;28;20082;-67
2021/04/20 11:48:14;;;;;;;3.10;2.33;;;16.60;94.00;;;;;;5062970;28;20070;-67
2021/04/20 11:50:53;;;;;;;2.60;1.90;;;16.70;93.50;;;;;;5059238;28;20024;-72
2021/04/20 11:53:21;;;;;;;3.25;2.35;;;16.90;93.60;;;;;;5059099;28;20399;-66
2021/04/20 11:55:54;;;;;;;3.17;2.65;;;16.90;92.50;;;;;;5050641;28;20574;-69
2021/04/20 11:58:23;;;;;;;5.40;2.65;;;16.90;92.60;;;;;;5051745;28;20039;-68
2021/04/20 12:00:58;;;;;;;3.72;2.10;;;17.10;91.30;;;;;;5055323;28;20036;-72
2021/04/20 12:03:26;;;;;;;2.22;1.83;;;17.20;92.30;;;;;;5078461;28;20043;-67
2021/04/20 12:05:58;;;;;;;2.60;1.92;;;17.40;92.30;;;;;;5059523;28;20047;-69
2021/04/20 12:08:32;;;;;;;3.90;1.90;;;17.70;91.50;;;;;;5063761;28;20039;-77
2021/04/20 12:10:59;;;;;;;;;;;17.60;91.10;;;;;;5063473;28;20094;-72
2021/04/20 12:13:32;;;;;;;2.47;1.80;;;18.00;88.90;;;;;;5065921;28;19995;-77
2021/04/20 12:16:00;;;;;;;1.65;1.50;;;18.10;88.80;;;;;;5069807;28;20657;-67
2021/04/20 12:18:29;;;;;;;1.77;1.40;;;18.30;84.90;;;;;;5067995;28;20028;-70
2021/04/20 12:21:00;;;;;;;2.33;1.30;;;18.30;86.50;;;;;;5064672;28;20020;-68
2021/04/20 12:23:27;;;;;;;2.28;1.80;;;18.50;87.40;;;;;;5065712;28;20363;-67
2021/04/20 12:25:54;;;;;;;3.95;1.95;;;18.30;84.30;;;;;;5066015;28;20019;-67
2021/04/20 12:28:21;;;;;;;1.92;1.38;;;18.30;83.40;;;;;;5066050;28;20032;-67
2021/04/20 12:30:50;;;;;;;2.17;1.75;;;18.40;84.90;;;;;;5066246;28;20040;-70
2021/04/20 12:33:26;;;;;;;1.90;1.70;;;18.60;85.10;;;;;;5064921;28;20027;-70
2021/04/20 12:35:53;;;;;;;2.20;2.00;;;18.50;83.00;;;;;;5061195;28;20055;-66
2021/04/20 12:38:22;;;;;;;2.38;2.15;;;18.50;82.70;;;;;;5064493;28;20029;-68
2021/04/20 12:40:53;;;;;;;1.70;1.60;;;18.50;83.20;;;;;;5064484;28;20032;-68
2021/04/20 12:43:20;;;;;;;1.50;1.40;;;18.90;83.30;;;;;;5063706;28;20017;-65
2021/04/20 12:45:48;;;;;;;1.88;1.10;;;19.20;82.20;;;;;;5064264;28;20032;-69
2021/04/20 12:48:16;;;;;;;1.40;1.20;;;19.40;82.00;;;;;;5059933;28;20590;-68
2021/04/20 12:50:51;;;;;;;1.10;1.00;;;19.60;81.90;;;;;;5051134;28;20036;-72
2021/04/20 12:53:20;;;;;;;1.98;1.10;;;19.80;81.70;;;;;;5059447;28;20032;-68
2021/04/20 12:55:47;;;;;;;1.30;1.20;;;19.60;80.80;;;;;;5044102;28;20025;-69
2021/04/20 12:58:26;;;;;;;1.92;1.40;;;19.80;79.70;;;;;;5044322;28;20028;-73
2021/04/20 13:01:05;;;;;;;1.30;1.20;;;19.80;78.30;;;;;;5044326;28;20033;-69
2021/04/20 13:03:32;;;;;;;1.10;1.00;;;19.60;76.80;;;;;;5043909;28;20399;-72
2021/04/20 13:05:59;;;;;;;2.22;1.52;;;19.90;77.60;;;;;;5043836;28;20065;-72
2021/04/20 13:08:27;;;;;;;1.20;1.10;;;19.50;73.90;;;;;;5043621;28;20112;-75
2021/04/20 13:10:58;;;;;;;1.42;1.30;;;19.70;75.60;;;;;;5044162;28;20032;-72
2021/04/20 13:13:28;;;;;;;1.50;1.38;;;19.80;76.90;;;;;;5043802;28;20032;-69
2021/04/20 13:16:00;;;;;;;1.73;1.20;;;19.90;74.60;;;;;;5044274;28;20033;-69